createdAt,value
2019-05-20T05:14:22.769Z,4.60
2019-05-20T05:15:28.100Z,6.75
2019-05-20T05:16:32.821Z,8.08
2019-05-20T05:17:38.369Z,7.65
2019-05-20T05:18:43.081Z,7.17
2019-05-20T05:19:48.634Z,6.60
2019-05-20T05:20:53.617Z,6.10
2019-05-20T05:21:58.850Z,7.12
2019-05-20T05:23:03.754Z,5.92
2019-05-20T05:24:09.122Z,5.10
2019-05-20T05:25:14.080Z,5.35
2019-05-20T05:26:19.423Z,5.10
2019-05-20T05:27:24.356Z,5.00
2019-05-20T05:28:29.883Z,5.35
2019-05-20T05:29:34.714Z,5.05
2019-05-20T05:30:41.385Z,5.00
2019-05-20T05:31:46.221Z,4.95
2019-05-20T05:32:54.268Z,4.70
2019-05-20T05:33:59.175Z,5.70
2019-05-20T05:35:04.353Z,4.80
2019-05-20T05:36:09.107Z,5.20
2019-05-20T05:37:14.500Z,4.80
2019-05-20T05:38:19.371Z,5.37
2019-05-20T05:39:24.973Z,4.95
2019-05-20T05:40:33.232Z,4.70
2019-05-20T05:41:38.619Z,4.80
2019-05-20T05:42:43.479Z,4.87
2019-05-20T05:43:48.842Z,4.33
2019-05-20T05:44:53.556Z,4.37
2019-05-20T05:45:59.011Z,4.50
2019-05-20T05:47:03.977Z,4.53
2019-05-20T05:48:09.352Z,4.70
2019-05-20T05:49:14.204Z,4.55
2019-05-20T05:50:20.082Z,4.97
2019-05-20T05:51:26.962Z,4.45
2019-05-20T05:52:32.095Z,4.45
2019-05-20T05:53:36.758Z,4.85
2019-05-20T05:54:42.116Z,4.60
2019-05-20T05:55:46.982Z,4.40
2019-05-20T05:56:52.348Z,4.80
2019-05-20T05:57:57.190Z,4.25
2019-05-20T05:59:02.726Z,4.60
2019-05-20T06:00:07.734Z,5.03
2019-05-20T06:01:12.964Z,5.17
2019-05-20T06:02:17.751Z,4.97
2019-05-20T06:03:23.128Z,4.97
2019-05-20T06:04:27.967Z,4.62
2019-05-20T06:05:33.347Z,5.22
2019-05-20T06:06:38.468Z,5.17
2019-05-20T06:07:43.975Z,5.37
2019-05-20T06:08:48.859Z,5.22
2019-05-20T06:09:54.397Z,5.05
2019-05-20T06:10:59.345Z,5.00
2019-05-20T06:12:04.827Z,4.60
2019-05-20T06:13:09.984Z,5.22
2019-05-20T06:14:15.387Z,5.00
2019-05-20T06:15:20.646Z,5.10
2019-05-20T06:16:36.079Z,5.05
2019-05-20T06:17:32.468Z,5.05
2019-05-20T06:18:39.322Z,4.78
2019-05-20T06:19:44.091Z,5.25
2019-05-20T06:20:49.392Z,5.35
2019-05-20T06:21:54.220Z,5.22
2019-05-20T06:22:59.589Z,4.83
2019-05-20T06:24:04.432Z,5.00
2019-05-20T06:25:10.067Z,5.22
2019-05-20T06:26:15.101Z,5.05
2019-05-20T06:27:20.514Z,4.97
2019-05-20T06:28:25.653Z,4.72
2019-05-20T06:29:30.914Z,4.60
2019-05-20T06:30:43.875Z,5.40
2019-05-20T06:31:49.413Z,4.97
2019-05-20T06:32:54.318Z,4.62
2019-05-20T06:33:59.605Z,5.35
2019-05-20T06:35:04.752Z,5.45
2019-05-20T06:36:10.167Z,5.35
2019-05-20T06:37:16.658Z,5.97
2019-05-20T06:38:40.968Z,6.33
2019-05-20T06:39:45.839Z,5.95
2019-05-20T06:40:51.211Z,5.60
2019-05-20T06:41:56.034Z,5.95
2019-05-20T06:43:01.297Z,6.03
2019-05-20T06:44:06.110Z,6.03
2019-05-20T06:45:11.354Z,6.20
2019-05-20T06:46:16.133Z,6.37
2019-05-20T06:47:21.569Z,5.62
2019-05-20T06:48:26.541Z,6.00
2019-05-20T06:49:31.879Z,5.53
2019-05-20T06:50:36.648Z,6.20
2019-05-20T06:51:42.104Z,6.20
2019-05-20T06:52:46.855Z,5.70
2019-05-20T06:53:53.127Z,6.05
2019-05-20T06:54:57.992Z,6.55
2019-05-20T06:56:03.417Z,5.70
2019-05-20T06:57:08.333Z,6.10
2019-05-20T06:58:13.661Z,5.35
2019-05-20T06:59:18.350Z,6.28
2019-05-20T07:00:34.637Z,6.53
2019-05-20T07:01:39.460Z,5.75
2019-05-20T07:02:44.816Z,6.15
2019-05-20T07:03:49.711Z,5.67
2019-05-20T07:04:55.093Z,5.83
2019-05-20T07:05:59.923Z,5.72
2019-05-20T07:07:19.968Z,5.72
2019-05-20T07:08:11.863Z,5.45
2019-05-20T07:09:17.353Z,5.15
2019-05-20T07:10:22.107Z,5.10
2019-05-20T07:11:27.414Z,5.10
2019-05-20T07:12:40.646Z,5.25
2019-05-20T07:13:39.215Z,5.53
2019-05-20T07:14:44.053Z,5.10
2019-05-20T07:15:49.467Z,5.75
2019-05-20T07:16:55.007Z,5.60
2019-05-20T07:18:00.326Z,5.03
2019-05-20T07:19:05.073Z,5.53
2019-05-20T07:20:10.717Z,5.17
2019-05-20T07:21:15.511Z,5.03
2019-05-20T07:22:20.841Z,5.05
2019-05-20T07:23:25.619Z,5.22
2019-05-20T07:24:30.981Z,5.30
2019-05-20T07:25:35.822Z,5.15
2019-05-20T07:26:41.247Z,4.65
2019-05-20T07:27:46.057Z,5.17
2019-05-20T07:28:51.347Z,4.75
2019-05-20T07:29:56.177Z,4.80
2019-05-20T07:31:01.690Z,5.25
2019-05-20T07:32:06.598Z,4.80
2019-05-20T07:33:11.919Z,5.00
2019-05-20T07:34:17.103Z,4.67
2019-05-20T07:35:30.251Z,4.85
2019-05-20T07:36:29.162Z,4.50
2019-05-20T07:37:34.654Z,5.10
2019-05-20T07:38:39.484Z,5.05
2019-05-20T07:39:44.980Z,4.70
2019-05-20T07:40:49.808Z,4.42
2019-05-20T07:41:54.998Z,4.42
2019-05-20T07:42:59.914Z,5.17
2019-05-20T07:44:05.315Z,4.12
2019-05-20T07:45:10.045Z,4.72
2019-05-20T07:46:15.547Z,4.45
2019-05-20T07:47:20.364Z,4.87
2019-05-20T07:48:26.103Z,4.60
2019-05-20T07:49:30.899Z,4.60
2019-05-20T07:50:38.414Z,4.90
2019-05-20T07:51:43.519Z,4.28
2019-05-20T07:52:48.908Z,4.62
2019-05-20T07:53:54.096Z,4.85
2019-05-20T07:55:00.212Z,4.35
2019-05-20T07:56:08.245Z,4.65
2019-05-20T07:57:15.024Z,4.70
2019-05-20T07:58:21.118Z,4.58
2019-05-20T07:59:27.435Z,4.28
2019-05-20T08:00:32.249Z,4.40
2019-05-20T08:01:37.661Z,4.47
2019-05-20T08:02:42.662Z,4.60
2019-05-20T08:03:48.029Z,4.42
2019-05-20T08:04:52.867Z,4.60
2019-05-20T08:05:58.321Z,4.37
2019-05-20T08:07:26.209Z,4.20
2019-05-20T08:08:10.186Z,4.20
2019-05-20T08:09:15.162Z,4.90
2019-05-20T08:10:20.537Z,4.22
2019-05-20T08:11:25.392Z,4.50
2019-05-20T08:12:30.867Z,4.90
2019-05-20T08:13:35.635Z,3.92
2019-05-20T08:14:40.955Z,4.65
2019-05-20T08:15:45.892Z,3.80
2019-05-20T08:16:51.316Z,4.30
2019-05-20T08:17:56.250Z,4.37
2019-05-20T08:19:02.431Z,4.25
2019-05-20T08:20:07.416Z,4.22
2019-05-20T08:21:12.797Z,4.17
2019-05-20T08:22:17.800Z,4.12
2019-05-20T08:23:23.213Z,3.87
2019-05-20T08:24:28.099Z,4.40
2019-05-20T08:25:33.452Z,4.15
2019-05-20T08:26:38.467Z,4.25
2019-05-20T08:27:43.786Z,3.92
2019-05-20T08:28:48.703Z,3.95
2019-05-20T08:29:54.089Z,4.25
2019-05-20T08:30:58.999Z,4.00
2019-05-20T08:32:04.197Z,4.15
2019-05-20T08:33:09.162Z,3.95
2019-05-20T08:34:14.605Z,4.00
2019-05-20T08:35:19.403Z,4.17
2019-05-20T08:36:24.801Z,4.12
2019-05-20T08:37:44.293Z,3.90
2019-05-20T08:38:36.582Z,4.10
2019-05-20T08:39:41.400Z,4.05
2019-05-20T08:40:48.778Z,3.95
2019-05-20T08:41:53.252Z,3.72
2019-05-20T08:42:58.771Z,3.60
2019-05-20T08:44:03.933Z,4.10
2019-05-20T08:45:09.696Z,3.77
2019-05-20T08:46:14.336Z,4.15
2019-05-20T08:47:19.821Z,4.10
2019-05-20T08:48:24.704Z,3.72
2019-05-20T08:49:30.099Z,3.52
2019-05-20T08:50:34.786Z,3.35
2019-05-20T08:51:40.167Z,3.62
2019-05-20T08:52:44.846Z,3.87
2019-05-20T08:53:50.231Z,3.92
2019-05-20T08:54:55.014Z,3.47
2019-05-20T08:56:00.415Z,3.95
2019-05-20T08:57:05.241Z,3.80
2019-05-20T08:58:10.612Z,3.62
2019-05-20T08:59:15.508Z,4.42
2019-05-20T09:00:23.668Z,3.85
2019-05-20T09:01:28.407Z,3.67
2019-05-20T09:02:33.968Z,3.50
2019-05-20T09:03:38.760Z,4.12
2019-05-20T09:04:44.214Z,3.80
2019-05-20T09:05:49.082Z,3.50
2019-05-20T09:06:54.519Z,3.85
2019-05-20T09:08:03.348Z,3.72
2019-05-20T09:09:11.530Z,3.60
2019-05-20T09:10:17.757Z,3.55
2019-05-20T09:11:21.665Z,3.58
2019-05-20T09:12:26.594Z,3.60
2019-05-20T09:13:31.978Z,3.55
2019-05-20T09:14:40.250Z,3.80
2019-05-20T09:15:45.475Z,3.90
2019-05-20T09:16:50.302Z,3.80
2019-05-20T09:17:55.790Z,3.50
2019-05-20T09:19:00.646Z,3.52
2019-05-20T09:20:06.170Z,3.55
2019-05-20T09:21:11.142Z,3.27
2019-05-20T09:22:16.606Z,3.83
2019-05-20T09:23:21.458Z,3.55
2019-05-20T09:24:26.832Z,3.30
2019-05-20T09:25:32.209Z,3.50
2019-05-20T09:26:37.676Z,3.67
2019-05-20T09:27:42.600Z,3.00
2019-05-20T09:28:48.001Z,3.15
2019-05-20T09:29:52.802Z,3.47
2019-05-20T09:30:58.332Z,3.25
2019-05-20T09:32:03.199Z,3.37
2019-05-20T09:33:08.831Z,3.10
2019-05-20T09:34:13.747Z,3.17
2019-05-20T09:35:19.153Z,3.47
2019-05-20T09:36:25.915Z,2.95
2019-05-20T09:37:31.035Z,3.60
2019-05-20T09:38:37.034Z,3.75
2019-05-20T09:39:42.596Z,3.72
2019-05-20T09:40:48.651Z,3.45
2019-05-20T09:41:54.034Z,3.27
2019-05-20T09:42:58.874Z,3.22
2019-05-20T09:44:04.245Z,3.52
2019-05-20T09:45:09.452Z,3.30
2019-05-20T09:46:14.628Z,3.17
2019-05-20T09:47:19.491Z,3.30
2019-05-20T09:48:25.335Z,3.55
2019-05-20T09:49:30.397Z,3.62
2019-05-20T09:50:35.539Z,3.30
2019-05-20T09:51:40.414Z,3.30
2019-05-20T09:52:45.793Z,3.40
2019-05-20T09:53:50.737Z,3.22
2019-05-20T09:54:56.135Z,3.30
2019-05-20T09:56:01.053Z,3.30
2019-05-20T09:57:06.480Z,3.40
2019-05-20T09:58:11.468Z,2.90
2019-05-20T09:59:16.867Z,2.98
2019-05-20T10:00:21.795Z,3.37
2019-05-20T10:01:27.122Z,3.30
2019-05-20T10:02:37.228Z,3.10
2019-05-20T10:03:38.994Z,3.20
2019-05-20T10:04:43.913Z,3.25
2019-05-20T10:05:49.341Z,3.27
2019-05-20T10:06:54.095Z,3.20
2019-05-20T10:07:59.375Z,3.22
2019-05-20T10:09:04.660Z,2.90
2019-05-20T10:10:10.251Z,3.10
2019-05-20T10:11:15.047Z,3.22
2019-05-20T10:12:20.576Z,3.17
2019-05-20T10:13:25.451Z,3.30
2019-05-20T10:14:30.842Z,3.42
2019-05-20T10:15:35.658Z,3.25
2019-05-20T10:16:41.049Z,3.15
2019-05-20T10:17:45.980Z,2.90
2019-05-20T10:18:55.200Z,3.30
2019-05-20T10:19:57.821Z,3.15
2019-05-20T10:21:03.361Z,3.00
2019-05-20T10:22:08.107Z,3.15
2019-05-20T10:23:15.904Z,3.20
2019-05-20T10:24:20.074Z,3.42
2019-05-20T10:25:25.571Z,3.30
2019-05-20T10:26:30.419Z,3.33
2019-05-20T10:27:35.834Z,3.10
2019-05-20T10:28:42.254Z,2.90
2019-05-20T10:29:47.806Z,3.10
2019-05-20T10:30:52.678Z,3.20
2019-05-20T10:31:58.067Z,3.10
2019-05-20T10:33:03.058Z,3.15
2019-05-20T10:34:08.428Z,3.15
2019-05-20T10:35:15.299Z,3.40
2019-05-20T10:36:20.744Z,2.85
2019-05-20T10:37:25.579Z,2.87
2019-05-20T10:38:30.718Z,3.12
2019-05-20T10:39:35.481Z,2.90
2019-05-20T10:40:40.923Z,2.92
2019-05-20T10:41:45.811Z,2.70
2019-05-20T10:42:51.271Z,2.90
2019-05-20T10:43:56.100Z,3.10
2019-05-20T10:45:01.523Z,3.10
2019-05-20T10:46:06.402Z,2.80
2019-05-20T10:47:11.798Z,2.95
2019-05-20T10:48:16.661Z,2.98
2019-05-20T10:49:22.162Z,2.80
2019-05-20T10:50:27.171Z,2.90
2019-05-20T10:51:32.564Z,3.08
2019-05-20T10:52:37.465Z,3.00
2019-05-20T10:53:42.852Z,2.83
2019-05-20T10:54:47.761Z,3.02
2019-05-20T10:55:53.132Z,3.15
2019-05-20T10:56:59.765Z,2.83
2019-05-20T10:58:05.101Z,3.00
2019-05-20T10:59:12.111Z,2.90
2019-05-20T11:00:17.235Z,2.80
2019-05-20T11:01:22.162Z,2.70
2019-05-20T11:02:31.168Z,2.90
2019-05-20T11:03:33.961Z,2.80
2019-05-20T11:04:39.243Z,3.02
2019-05-20T11:05:44.605Z,2.75
2019-05-20T11:06:49.969Z,2.90
2019-05-20T11:07:54.808Z,2.80
2019-05-20T11:09:13.151Z,2.80
2019-05-20T11:10:08.052Z,2.80
2019-05-20T11:11:14.427Z,2.92
2019-05-20T11:12:19.662Z,3.00
2019-05-20T11:13:25.020Z,2.75
2019-05-20T11:14:29.925Z,2.60
2019-05-20T11:15:35.286Z,2.80
2019-05-20T11:16:40.286Z,3.00
2019-05-20T11:17:45.689Z,2.85
2019-05-20T11:18:50.479Z,2.70
2019-05-20T11:19:55.987Z,2.95
2019-05-20T11:21:00.817Z,2.80
2019-05-20T11:22:06.301Z,2.67
2019-05-20T11:23:11.128Z,2.60
2019-05-20T11:24:16.514Z,2.77
2019-05-20T11:25:21.378Z,2.60
2019-05-20T11:26:26.792Z,3.00
2019-05-20T11:27:31.588Z,2.80
2019-05-20T11:28:36.966Z,2.65
2019-05-20T11:29:41.826Z,2.70
2019-05-20T11:30:47.291Z,2.92
2019-05-20T11:31:52.050Z,3.08
2019-05-20T11:32:57.426Z,2.77
2019-05-20T11:34:02.109Z,2.87
2019-05-20T11:35:07.660Z,2.55
2019-05-20T11:36:12.507Z,2.70
2019-05-20T11:37:17.755Z,2.60
2019-05-20T11:38:22.736Z,2.80
2019-05-20T11:39:33.397Z,2.67
2019-05-20T11:40:34.495Z,2.47
2019-05-20T11:41:52.793Z,2.80
2019-05-20T11:42:46.434Z,3.00
2019-05-20T11:43:51.883Z,2.75
2019-05-20T11:44:56.648Z,2.77
2019-05-20T11:46:02.157Z,2.80
2019-05-20T11:47:06.961Z,2.52
2019-05-20T11:48:12.440Z,2.92
2019-05-20T11:49:17.197Z,3.10
2019-05-20T11:50:22.644Z,2.90
2019-05-20T11:51:27.519Z,2.70
2019-05-20T11:52:32.974Z,2.70
2019-05-20T11:53:37.819Z,2.60
2019-05-20T11:54:43.178Z,2.92
2019-05-20T11:55:48.052Z,2.77
2019-05-20T11:56:53.403Z,2.52
2019-05-20T11:58:14.677Z,2.77
2019-05-20T11:59:05.350Z,2.90
2019-05-20T12:00:11.539Z,2.50
2019-05-20T12:01:16.827Z,2.80
2019-05-20T12:02:21.659Z,2.60
2019-05-20T12:03:27.096Z,2.80
2019-05-20T12:04:31.912Z,2.83
2019-05-20T12:05:37.410Z,2.70
2019-05-20T12:06:42.054Z,2.70
2019-05-20T12:07:47.432Z,2.62
2019-05-20T12:08:52.144Z,2.60
2019-05-20T12:09:57.411Z,2.60
2019-05-20T12:11:02.122Z,2.62
2019-05-20T12:12:07.678Z,2.60
2019-05-20T12:13:12.480Z,2.80
2019-05-20T12:14:17.774Z,2.72
2019-05-20T12:15:22.628Z,2.80
2019-05-20T12:16:28.010Z,2.52
2019-05-20T12:17:32.849Z,2.80
2019-05-20T12:18:38.211Z,2.60
2019-05-20T12:19:42.876Z,2.50
2019-05-20T12:20:48.346Z,2.80
2019-05-20T12:21:53.118Z,3.05
2019-05-20T12:22:58.615Z,2.83
2019-05-20T12:24:03.515Z,2.77
2019-05-20T12:25:10.078Z,2.35
2019-05-20T12:26:14.862Z,2.58
2019-05-20T12:27:20.073Z,2.83
2019-05-20T12:28:24.947Z,2.80
2019-05-20T12:29:30.323Z,2.30
2019-05-20T12:30:35.150Z,2.70
2019-05-20T12:31:40.627Z,2.60
2019-05-20T12:32:45.560Z,2.60
2019-05-20T12:33:50.904Z,2.70
2019-05-20T12:34:55.762Z,2.37
2019-05-20T12:36:01.030Z,2.55
2019-05-20T12:37:06.038Z,2.45
2019-05-20T12:38:11.618Z,2.60
2019-05-20T12:39:16.615Z,2.70
2019-05-20T12:40:22.584Z,2.47
2019-05-20T12:41:27.455Z,2.62
2019-05-20T12:42:32.857Z,2.42
2019-05-20T12:43:37.510Z,2.83
2019-05-20T12:44:42.793Z,2.50
2019-05-20T12:45:47.624Z,2.80
2019-05-20T12:46:53.286Z,2.50
2019-05-20T12:47:58.109Z,2.50
2019-05-20T12:49:03.541Z,2.37
2019-05-20T12:50:09.326Z,2.25
2019-05-20T12:51:14.977Z,2.47
2019-05-20T12:52:19.908Z,2.42
2019-05-20T12:53:25.436Z,2.60
2019-05-20T12:54:30.356Z,2.40
2019-05-20T12:55:35.710Z,2.52
2019-05-20T12:56:40.681Z,2.37
2019-05-20T12:57:45.942Z,2.80
2019-05-20T12:58:50.819Z,2.67
2019-05-20T12:59:56.185Z,2.62
2019-05-20T13:01:01.922Z,2.37
2019-05-20T13:02:07.378Z,2.65
2019-05-20T13:03:12.165Z,2.42
2019-05-20T13:04:17.700Z,2.40
2019-05-20T13:05:22.526Z,2.27
2019-05-20T13:06:28.176Z,2.00
2019-05-20T13:07:33.069Z,2.37
2019-05-20T13:08:38.806Z,2.45
2019-05-20T13:09:43.703Z,2.60
2019-05-20T13:10:49.227Z,2.37
2019-05-20T13:11:54.350Z,2.60
2019-05-20T13:12:59.830Z,2.37
2019-05-20T13:14:04.720Z,2.50
2019-05-20T13:15:10.748Z,2.60
2019-05-20T13:16:15.971Z,2.22
2019-05-20T13:17:21.508Z,2.70
2019-05-20T13:18:26.519Z,2.50
2019-05-20T13:19:32.797Z,2.58
2019-05-20T13:20:37.696Z,2.20
2019-05-20T13:21:43.493Z,2.42
2019-05-20T13:22:48.551Z,2.42
2019-05-20T13:23:54.079Z,2.33
2019-05-20T13:24:59.033Z,2.50
2019-05-20T13:26:04.582Z,2.30
2019-05-20T13:27:09.647Z,2.40
2019-05-20T13:28:15.178Z,2.42
2019-05-20T13:29:20.215Z,2.65
2019-05-20T13:30:26.085Z,2.60
2019-05-20T13:31:31.269Z,2.30
2019-05-20T13:32:37.011Z,2.35
2019-05-20T13:33:41.912Z,2.30
2019-05-20T13:34:47.435Z,2.27
2019-05-20T13:35:52.048Z,2.50
2019-05-20T13:36:57.471Z,2.60
2019-05-20T13:38:02.538Z,2.40
2019-05-20T13:39:09.911Z,2.60
2019-05-20T13:40:14.972Z,2.50
2019-05-20T13:41:20.469Z,2.10
2019-05-20T13:42:25.402Z,2.60
2019-05-20T13:43:30.881Z,2.70
2019-05-20T13:44:35.759Z,2.40
2019-05-20T13:45:41.288Z,2.50
2019-05-20T13:46:46.486Z,2.10
2019-05-20T13:47:51.644Z,2.20
2019-05-20T13:48:56.826Z,2.58
2019-05-20T13:50:02.433Z,2.40
2019-05-20T13:51:07.429Z,2.72
2019-05-20T13:52:12.786Z,2.65
2019-05-20T13:53:17.605Z,2.40
2019-05-20T13:54:23.099Z,2.35
2019-05-20T13:55:28.218Z,2.40
2019-05-20T13:56:33.773Z,2.27
2019-05-20T13:57:38.575Z,2.47
2019-05-20T13:58:44.020Z,2.60
2019-05-20T13:59:49.050Z,2.35
2019-05-20T14:00:54.589Z,2.40
2019-05-20T14:02:00.410Z,2.37
2019-05-20T14:03:05.900Z,2.10
2019-05-20T14:04:10.753Z,2.30
2019-05-20T14:05:16.476Z,2.30
2019-05-20T14:06:21.578Z,2.45
2019-05-20T14:07:27.209Z,2.37
2019-05-20T14:08:32.136Z,2.33
2019-05-20T14:09:37.491Z,2.30
2019-05-20T14:10:42.359Z,2.05
2019-05-20T14:11:47.996Z,2.60
2019-05-20T14:12:53.010Z,2.20
2019-05-20T14:13:58.551Z,2.50
2019-05-20T14:15:03.469Z,2.45
2019-05-20T14:16:09.040Z,2.55
2019-05-20T14:17:13.991Z,2.40
2019-05-20T14:18:19.627Z,2.22
2019-05-20T14:19:24.550Z,2.15
2019-05-20T14:20:30.130Z,2.60
2019-05-20T14:21:35.216Z,2.35
2019-05-20T14:22:40.856Z,2.27
2019-05-20T14:23:45.857Z,2.35
2019-05-20T14:24:51.192Z,2.22
2019-05-20T14:25:56.241Z,2.27
2019-05-20T14:27:01.639Z,2.30
2019-05-20T14:28:06.745Z,2.42
2019-05-20T14:29:12.259Z,2.40
2019-05-20T14:30:17.131Z,2.20
2019-05-20T14:31:22.694Z,2.17
2019-05-20T14:32:27.743Z,2.42
2019-05-20T14:33:33.175Z,2.25
2019-05-20T14:34:38.252Z,2.00
2019-05-20T14:35:43.657Z,2.27
2019-05-20T14:36:52.620Z,2.30
2019-05-20T14:37:55.817Z,2.33
2019-05-20T14:39:00.695Z,2.15
2019-05-20T14:40:06.178Z,2.42
2019-05-20T14:41:21.006Z,2.30
2019-05-20T14:42:18.259Z,2.20
2019-05-20T14:43:23.208Z,2.30
2019-05-20T14:44:28.602Z,2.25
2019-05-20T14:45:33.503Z,2.27
2019-05-20T14:46:38.911Z,2.58
2019-05-20T14:47:43.764Z,2.55
2019-05-20T14:48:49.235Z,2.33
2019-05-20T14:49:54.161Z,2.35
2019-05-20T14:50:59.565Z,2.10
2019-05-20T14:52:04.150Z,2.10
2019-05-20T14:53:09.538Z,2.20
2019-05-20T14:54:14.427Z,2.40
2019-05-20T14:55:19.792Z,2.15
2019-05-20T14:56:27.091Z,2.42
2019-05-20T14:57:32.668Z,2.35
2019-05-20T14:58:37.727Z,2.12
2019-05-20T14:59:43.247Z,2.40
2019-05-20T15:00:48.392Z,2.17
2019-05-20T15:01:53.974Z,2.17
2019-05-20T15:02:58.890Z,2.10
2019-05-20T15:04:04.376Z,2.22
2019-05-20T15:05:09.543Z,2.45
2019-05-20T15:06:15.139Z,2.40
2019-05-20T15:07:30.220Z,2.40
2019-05-20T15:08:27.232Z,2.52
2019-05-20T15:09:32.184Z,2.00
2019-05-20T15:10:37.798Z,2.30
2019-05-20T15:11:42.605Z,2.37
2019-05-20T15:12:48.079Z,2.10
2019-05-20T15:13:53.025Z,2.00
2019-05-20T15:14:58.509Z,2.20
2019-05-20T15:16:03.636Z,2.15
2019-05-20T15:17:09.059Z,2.35
2019-05-20T15:18:14.199Z,2.25
2019-05-20T15:19:19.618Z,2.20
2019-05-20T15:20:24.596Z,2.10
2019-05-20T15:21:29.905Z,2.30
2019-05-20T15:22:34.975Z,2.22
2019-05-20T15:23:40.159Z,2.30
2019-05-20T15:24:45.060Z,2.20
2019-05-20T15:25:50.603Z,2.30
2019-05-20T15:26:55.449Z,2.20
2019-05-20T15:28:00.977Z,2.65
2019-05-20T15:29:06.349Z,2.50
2019-05-20T15:30:12.256Z,2.35
2019-05-20T15:31:17.275Z,2.40
2019-05-20T15:32:22.742Z,2.40
2019-05-20T15:33:27.628Z,2.37
2019-05-20T15:34:33.075Z,2.25
2019-05-20T15:35:37.946Z,2.55
2019-05-20T15:36:43.394Z,2.45
2019-05-20T15:37:48.249Z,3.02
2019-05-20T15:38:53.624Z,2.77
2019-05-20T15:39:58.633Z,2.60
2019-05-20T15:41:04.211Z,2.50
2019-05-20T15:42:08.983Z,2.58
2019-05-20T15:43:14.518Z,2.40
2019-05-20T15:44:19.492Z,2.47
2019-05-20T15:45:25.005Z,2.65
2019-05-20T15:46:29.829Z,2.58
2019-05-20T15:47:35.681Z,2.50
2019-05-20T15:48:40.433Z,2.90
2019-05-20T15:49:45.891Z,3.15
2019-05-20T15:50:50.816Z,2.50
2019-05-20T15:51:56.237Z,2.75
2019-05-20T15:53:01.109Z,2.80
2019-05-20T15:54:06.583Z,2.60
2019-05-20T15:55:11.702Z,2.60
2019-05-20T15:56:17.182Z,2.90
2019-05-20T15:57:22.060Z,2.90
2019-05-20T15:58:27.546Z,2.87
2019-05-20T15:59:45.419Z,3.00
2019-05-20T16:00:39.484Z,2.80
2019-05-20T16:01:44.447Z,3.22
2019-05-20T16:02:49.962Z,2.75
2019-05-20T16:03:54.911Z,2.52
2019-05-20T16:05:00.279Z,3.15
2019-05-20T16:06:05.264Z,3.12
2019-05-20T16:07:10.745Z,2.95
2019-05-20T16:08:15.790Z,2.70
2019-05-20T16:09:21.161Z,2.80
2019-05-20T16:10:26.079Z,3.30
2019-05-20T16:11:31.509Z,3.22
2019-05-20T16:12:36.348Z,2.83
2019-05-20T16:13:41.769Z,3.10
2019-05-20T16:14:46.539Z,2.83
2019-05-20T16:15:51.910Z,2.92
2019-05-20T16:16:56.780Z,2.85
2019-05-20T16:18:02.202Z,3.12
2019-05-20T16:19:07.042Z,3.33
2019-05-20T16:20:12.411Z,3.35
2019-05-20T16:21:17.315Z,3.10
2019-05-20T16:22:22.929Z,3.10
2019-05-20T16:23:27.846Z,3.30
2019-05-20T16:24:33.327Z,3.22
2019-05-20T16:25:38.225Z,3.17
2019-05-20T16:26:43.609Z,3.17
2019-05-20T16:27:48.515Z,3.42
2019-05-20T16:28:53.757Z,2.75
2019-05-20T16:30:06.207Z,3.35
2019-05-20T16:31:05.609Z,3.20
2019-05-20T16:32:10.480Z,3.10
2019-05-20T16:33:16.008Z,3.45
2019-05-20T16:34:20.892Z,3.37
2019-05-20T16:35:26.535Z,3.15
2019-05-20T16:36:31.426Z,3.55
2019-05-20T16:37:36.815Z,3.42
2019-05-20T16:38:41.811Z,3.40
2019-05-20T16:39:47.110Z,3.30
2019-05-20T16:40:52.043Z,3.33
2019-05-20T16:41:57.435Z,3.22
2019-05-20T16:43:02.305Z,2.95
2019-05-20T16:44:07.592Z,3.30
2019-05-20T16:45:12.588Z,3.33
2019-05-20T16:46:17.887Z,3.47
2019-05-20T16:47:22.703Z,3.52
2019-05-20T16:48:28.029Z,3.33
2019-05-20T16:49:32.876Z,3.17
2019-05-20T16:50:38.355Z,3.40
2019-05-20T16:51:43.266Z,3.27
2019-05-20T16:52:48.777Z,3.60
2019-05-20T16:53:53.635Z,3.17
2019-05-20T16:54:59.176Z,3.55
2019-05-20T16:56:04.052Z,3.05
2019-05-20T16:57:09.848Z,3.25
2019-05-20T16:58:14.713Z,3.58
2019-05-20T16:59:20.196Z,3.30
2019-05-20T17:00:31.622Z,3.60
2019-05-20T17:01:45.591Z,3.52
2019-05-20T17:02:38.638Z,3.42
2019-05-20T17:03:44.081Z,3.33
2019-05-20T17:04:48.697Z,3.37
2019-05-20T17:05:54.228Z,3.27
2019-05-20T17:06:58.967Z,3.40
2019-05-20T17:08:04.325Z,3.33
2019-05-20T17:09:09.216Z,3.10
2019-05-20T17:10:15.007Z,3.45
2019-05-20T17:11:19.880Z,3.40
2019-05-20T17:12:25.273Z,3.45
2019-05-20T17:13:30.323Z,3.22
2019-05-20T17:14:35.726Z,3.60
2019-05-20T17:15:40.702Z,3.37
2019-05-20T17:16:46.169Z,3.30
2019-05-20T17:17:51.056Z,3.35
2019-05-20T17:18:56.600Z,3.77
2019-05-20T17:20:01.365Z,3.33
2019-05-20T17:21:06.882Z,3.62
2019-05-20T17:22:11.732Z,3.75
2019-05-20T17:23:17.256Z,3.30
2019-05-20T17:24:22.320Z,3.10
2019-05-20T17:25:28.038Z,3.60
2019-05-20T17:26:33.070Z,3.20
2019-05-20T17:27:38.529Z,3.60
2019-05-20T17:28:43.537Z,3.00
2019-05-20T17:29:48.909Z,3.10
2019-05-20T17:30:53.781Z,3.65
2019-05-20T17:31:59.051Z,3.60
2019-05-20T17:33:03.926Z,3.83
2019-05-20T17:34:09.461Z,3.70
2019-05-20T17:35:14.649Z,3.55
2019-05-20T17:36:19.976Z,3.58
2019-05-20T17:37:24.849Z,3.80
2019-05-20T17:38:30.315Z,3.60
2019-05-20T17:39:35.156Z,3.67
2019-05-20T17:40:40.352Z,3.35
2019-05-20T17:41:45.178Z,3.62
2019-05-20T17:42:50.838Z,3.45
2019-05-20T17:43:55.712Z,4.17
2019-05-20T17:45:01.281Z,3.40
2019-05-20T17:46:06.290Z,3.70
2019-05-20T17:47:11.595Z,4.08
2019-05-20T17:48:16.756Z,3.47
2019-05-20T17:49:22.223Z,3.67
2019-05-20T17:50:27.099Z,3.62
2019-05-20T17:51:32.726Z,3.62
2019-05-20T17:52:37.846Z,3.90
2019-05-20T17:53:43.332Z,3.77
2019-05-20T17:54:48.385Z,3.70
2019-05-20T17:55:53.963Z,3.50
2019-05-20T17:56:58.937Z,3.87
2019-05-20T17:58:04.556Z,3.70
2019-05-20T17:59:09.429Z,3.75
2019-05-20T18:00:19.010Z,3.85
2019-05-20T18:01:24.191Z,3.67
2019-05-20T18:02:29.687Z,3.83
2019-05-20T18:03:34.543Z,3.40
2019-05-20T18:04:39.918Z,3.80
2019-05-20T18:05:45.058Z,3.70
2019-05-20T18:06:50.512Z,3.77
2019-05-20T18:07:55.448Z,3.95
2019-05-20T18:09:01.753Z,3.67
2019-05-20T18:10:06.740Z,3.95
2019-05-20T18:11:12.218Z,3.65
2019-05-20T18:12:17.355Z,3.67
2019-05-20T18:13:22.748Z,3.72
2019-05-20T18:14:27.814Z,3.83
2019-05-20T18:15:33.266Z,3.33
2019-05-20T18:16:38.285Z,3.85
2019-05-20T18:17:43.890Z,3.80
2019-05-20T18:18:48.727Z,3.70
2019-05-20T18:19:54.153Z,3.65
2019-05-20T18:20:59.056Z,3.83
2019-05-20T18:22:04.538Z,3.80
2019-05-20T18:23:09.442Z,3.90
2019-05-20T18:24:14.848Z,3.92
2019-05-20T18:25:19.698Z,3.95
2019-05-20T18:26:25.122Z,3.47
2019-05-20T18:27:29.997Z,3.83
2019-05-20T18:28:35.450Z,3.65
2019-05-20T18:29:40.242Z,4.00
2019-05-20T18:30:45.586Z,3.60
2019-05-20T18:31:50.417Z,3.75
2019-05-20T18:32:55.791Z,3.98
2019-05-20T18:34:00.733Z,3.62
2019-05-20T18:35:06.300Z,4.03
2019-05-20T18:36:11.017Z,4.00
2019-05-20T18:37:16.418Z,3.72
2019-05-20T18:38:21.267Z,3.83
2019-05-20T18:39:26.780Z,3.72
2019-05-20T18:40:31.669Z,4.10
2019-05-20T18:41:37.162Z,3.95
2019-05-20T18:42:42.104Z,4.08
2019-05-20T18:43:47.594Z,4.05
2019-05-20T18:44:52.450Z,3.98
2019-05-20T18:45:58.059Z,3.85
2019-05-20T18:47:02.946Z,4.00
2019-05-20T18:48:08.413Z,4.10
2019-05-20T18:49:13.285Z,3.62
2019-05-20T18:50:18.882Z,4.37
2019-05-20T18:51:23.842Z,3.80
2019-05-20T18:52:29.225Z,4.00
2019-05-20T18:53:34.009Z,3.80
2019-05-20T18:54:39.489Z,4.20
2019-05-20T18:55:44.465Z,3.92
2019-05-20T18:56:49.960Z,3.80
2019-05-20T18:57:54.867Z,4.08
2019-05-20T18:59:00.375Z,4.08
2019-05-20T19:00:06.356Z,3.85
2019-05-20T19:01:11.905Z,3.98
2019-05-20T19:02:16.870Z,4.10
2019-05-20T19:03:22.904Z,4.10
2019-05-20T19:04:28.268Z,4.12
2019-05-20T19:05:33.643Z,4.35
2019-05-20T19:06:38.471Z,4.55
2019-05-20T19:07:44.006Z,4.55
2019-05-20T19:08:49.100Z,3.83
2019-05-20T19:09:54.576Z,4.00
2019-05-20T19:10:59.350Z,3.90
2019-05-20T19:12:04.778Z,4.17
2019-05-20T19:13:09.539Z,4.17
2019-05-20T19:14:14.884Z,4.42
2019-05-20T19:15:19.825Z,3.80
2019-05-20T19:16:25.315Z,4.00
2019-05-20T19:17:30.206Z,4.17
2019-05-20T19:18:35.805Z,4.03
2019-05-20T19:19:40.668Z,3.95
2019-05-20T19:20:46.070Z,4.03
2019-05-20T19:21:50.897Z,3.80
2019-05-20T19:22:56.494Z,4.00
2019-05-20T19:24:01.452Z,4.08
2019-05-20T19:25:07.449Z,3.92
2019-05-20T19:26:23.742Z,4.00
2019-05-20T19:27:19.507Z,3.80
2019-05-20T19:28:24.507Z,3.72
2019-05-20T19:29:30.264Z,4.12
2019-05-20T19:30:35.056Z,4.05
2019-05-20T19:31:40.420Z,3.70
2019-05-20T19:32:45.428Z,4.30
2019-05-20T19:33:50.922Z,4.05
2019-05-20T19:34:55.758Z,4.15
2019-05-20T19:36:01.140Z,4.08
2019-05-20T19:37:06.188Z,3.92
2019-05-20T19:38:11.705Z,4.60
2019-05-20T19:39:16.795Z,4.28
2019-05-20T19:40:22.192Z,4.00
2019-05-20T19:41:27.082Z,3.90
2019-05-20T19:42:32.386Z,3.98
2019-05-20T19:43:37.202Z,4.12